ADDS METAR Data INFO
IDs: Format: Raw Decoded Include TAF

Data at: 1809 UTC 24 Nov 2017

KSLR 241755Z AUTO 20011KT 10SM CLR 21/01 A2995 RMK AO2 T02110011 10211 20076
KSLR 241735Z AUTO 19010KT 10SM CLR 20/02 A2996 RMK AO2 T02030017
KSLR 241715Z AUTO 21011KT 10SM CLR 20/02 A2997 RMK AO2 T01950015
KSLR 241655Z AUTO 19009KT 10SM CLR 18/01 A2998 RMK AO2 T01830012
KSLR 241635Z AUTO 18007KT 10SM CLR 18/01 A2999 RMK AO2 T01780014
KSLR 241615Z AUTO 18008KT 1 3/4SM HZ VV007 17/01 A2999 RMK AO2 VIS 1/4V5 T01700010
KSLR 241555Z AUTO 19009KT 10SM CLR 16/01 A2999 RMK AO2 T01610011
KSLR 241535Z AUTO 20007KT 10SM CLR 15/01 A2999 RMK AO2 T01480014
KSLR 241515Z AUTO 20009KT 10SM CLR 13/02 A2999 RMK AO2 T01320017
KSLR 241455Z AUTO 20009KT 10SM CLR 12/02 A2999 RMK AO2 T01180015
KSLR 241435Z AUTO 20009KT 10SM CLR 11/01 A2999 RMK AO2 T01130014
KSLR 241415Z AUTO 20006KT 10SM CLR 10/02 A2999 RMK AO2 T01020016
KSLR 241355Z AUTO 18006KT 10SM CLR 09/02 A2999 RMK AO2 T00920015
KSLR 241335Z AUTO 19006KT 10SM CLR 08/02 A3000 RMK AO2 T00810015
KSLR 241315Z AUTO 18005KT 10SM CLR 08/01 A3000 RMK AO2 T00780013
KSLR 241255Z AUTO 19005KT 10SM CLR 08/01 A3000 RMK AO2 T00760012
KSLR 241235Z AUTO 19004KT 10SM CLR 08/01 A3000 RMK AO2 T00770013
KSLR 241215Z AUTO 18005KT 10SM CLR 08/01 A3000 RMK AO2 T00800010
KSLR 241155Z AUTO 19005KT 10SM CLR 08/01 A3000 RMK AO2 T00830010 10090 20071
KSLR 241135Z AUTO 19005KT 10SM CLR 08/01 A2999 RMK AO2 T00750010
KSLR 241115Z AUTO 20005KT 10SM CLR 08/01 A3000 RMK AO2 T00800009
KSLR 241055Z AUTO 19003KT 10SM CLR 08/01 A3000 RMK AO2 T00800007
KSLR 241035Z AUTO 19005KT 10SM CLR 07/01 A3000 RMK AO2 T00740010
KSLR 241015Z AUTO 21005KT 10SM CLR 07/01 A3001 RMK AO2 T00730009
KSLR 240955Z AUTO 21006KT 10SM CLR 08/01 A3001 RMK AO2 T00750008
KSLR 240935Z AUTO 21006KT 10SM CLR 08/01 A3001 RMK AO2 T00770008
KSLR 240915Z AUTO 20006KT 10SM CLR 08/01 A3001 RMK AO2 T00790007
KSLR 240855Z AUTO 21007KT 10SM CLR 08/01 A3002 RMK AO2 T00770009
KSLR 240835Z AUTO 20006KT 10SM CLR 08/01 A3002 RMK AO2 T00780010
KSLR 240815Z AUTO 20005KT 10SM CLR 08/01 A3003 RMK AO2 T00800008
KSLR 240755Z AUTO 00000KT 10SM CLR 08/01 A3004 RMK AO2 T00770011
KSLR 240735Z AUTO 22003KT 10SM CLR 08/01 A3004 RMK AO2 T00800013
KSLR 240715Z AUTO 23003KT 10SM CLR 08/02 A3004 RMK AO2 T00820018
KSLR 240655Z AUTO 20003KT 10SM CLR 08/02 A3004 RMK AO2 T00820021
KSLR 240635Z AUTO 21003KT 10SM CLR 08/02 A3004 RMK AO2 T00820020
KSLR 240615Z AUTO 00000KT 10SM CLR 08/01 A3006 RMK AO2 T00760011
KSLR 240555Z AUTO 19003KT 10SM CLR 09/02 A3006 RMK AO2 T00880020 10142 20079 401850006
KSLR 240535Z AUTO 00000KT 10SM CLR 09/01 A3006 RMK AO2 T00880010
KSLR 240515Z AUTO 19003KT 10SM CLR 08/02 A3007 RMK AO2 T00830015
KSLR 240455Z AUTO 18003KT 10SM CLR 09/01 A3007 RMK AO2 T00850010
KSLR 240435Z AUTO 00000KT 10SM CLR 08/01 A3008 RMK AO2 T00830007
KSLR 240415Z AUTO 00000KT 10SM CLR 09/01 A3008 RMK AO2 T00850006
KSLR 240355Z AUTO 16003KT 10SM CLR 08/01 A3008 RMK AO2 T00840008
KSLR 240335Z AUTO 17003KT 10SM CLR 08/02 A3008 RMK AO2 T00820015
KSLR 240315Z AUTO 00000KT 10SM CLR 09/02 A3009 RMK AO2 T00850017
KSLR 240255Z AUTO 17003KT 10SM CLR 08/02 A3009 RMK AO2 T00840017
KSLR 240235Z AUTO 00000KT 10SM CLR 08/02 A3009 RMK AO2 T00830019
KSLR 240215Z AUTO 00000KT 10SM CLR 09/02 A3009 RMK AO2 T00860016
KSLR 240155Z AUTO 00000KT 10SM CLR 10/01 A3009 RMK AO2 T00970011
KSLR 240135Z AUTO 00000KT 10SM CLR 10/00 A3009 RMK AO2 T01020004
KSLR 240115Z AUTO 19003KT 10SM CLR 11/01 A3009 RMK AO2 T01080011
KSLR 240055Z AUTO 17004KT 10SM CLR 13/00 A3008 RMK AO2 T01281005
KSLR 240035Z AUTO 16005KT 10SM CLR 12/00 A3008 RMK AO2 T01211001
KSLR 240015Z AUTO 17003KT 10SM CLR 12/00 A3008 RMK AO2 T01241001
KSLR 232355Z AUTO 19004KT 10SM CLR 14/M01 A3008 RMK AO2 T01421012 10185 20140
KSLR 232335Z AUTO 20003KT 10SM CLR 15/M01 A3009 RMK AO2 T01501014
KSLR 232315Z AUTO 22003KT 10SM CLR 15/M01 A3008 RMK AO2 T01521007
KSLR 232255Z AUTO 20004KT 10SM CLR 16/M01 A3008 RMK AO2 T01641010
KSLR 232235Z AUTO 21005KT 10SM CLR 17/M01 A3008 RMK AO2 T01731013
KSLR 232215Z AUTO 21004KT 10SM CLR 18/M02 A3008 RMK AO2 T01771021
KSLR 232155Z AUTO 00000KT 10SM CLR 18/M03 A3009 RMK AO2 T01801028
KSLR 232135Z AUTO 19004KT 10SM CLR 18/M03 A3009 RMK AO2 T01811028
KSLR 232115Z AUTO 17003KT 10SM CLR 18/M03 A3009 RMK AO2 T01831026
KSLR 232055Z AUTO 00000KT 10SM CLR 18/M03 A3009 RMK AO2 T01801030
KSLR 232035Z AUTO 00000KT 10SM CLR 18/M03 A3009 RMK AO2 T01801032
KSLR 232015Z AUTO 00000KT 10SM CLR 17/M03 A3010 RMK AO2 T01701030
KSLR 231955Z AUTO 00000KT 10SM CLR 17/M03 A3012 RMK AO2 T01701027
KSLR 231935Z AUTO 00000KT 10SM CLR 16/M03 A3012 RMK AO2 T01641028
KSLR 231915Z AUTO 36003KT 10SM CLR 16/M03 A3013 RMK AO2 T01611026
KSLR 231855Z AUTO 00000KT 10SM CLR 15/M03 A3014 RMK AO2 T01531028
KSLR 231835Z AUTO 36004KT 10SM CLR 15/M02 A3015 RMK AO2 T01511024
KSLR 231815Z AUTO 00000KT 10SM CLR 15/M03 A3017 RMK AO2 T01471028
KSLR 231755Z AUTO 00000KT 10SM CLR 14/M03 A3018 RMK AO2 T01381035 10138 20006
KSLR 231735Z AUTO 01004KT 10SM CLR 13/M04 A3020 RMK AO2 T01321036
KSLR 231715Z AUTO 02004KT 10SM CLR 13/M03 A3021 RMK AO2 T01291026
KSLR 231655Z AUTO 00000KT 10SM CLR 12/M01 A3022 RMK AO2 T01221015
KSLR 231635Z AUTO 00000KT 10SM CLR 12/M02 A3022 RMK AO2 T01201024
KSLR 231615Z AUTO 00000KT 10SM CLR 11/M02 A3022 RMK AO2 T01111022
KSLR 231555Z AUTO 00000KT 10SM CLR 10/00 A3023 RMK AO2 T01010001
KSLR 231535Z AUTO 00000KT 10SM CLR 09/01 A3023 RMK AO2 T00850012
KSLR 231515Z AUTO 00000KT 10SM CLR 07/02 A3024 RMK AO2 T00730018
KSLR 231455Z AUTO 00000KT 10SM CLR 06/01 A3024 RMK AO2 T00630012
KSLR 231435Z AUTO 00000KT 10SM CLR 05/01 A3024 RMK AO2 T00530007
KSLR 231415Z AUTO 00000KT 10SM CLR 04/M02 A3024 RMK AO2 T00411016
KSLR 231355Z AUTO 00000KT 10SM CLR 02/M01 A3022 RMK AO2 T00231010
KSLR 231335Z AUTO 00000KT 10SM CLR 02/M02 A3022 RMK AO2 T00151018
KSLR 231315Z AUTO 00000KT 10SM CLR 01/M02 A3022 RMK AO2 T00071022
KSLR 231255Z AUTO 21003KT 10SM CLR 02/M02 A3022 RMK AO2 T00151023
KSLR 231235Z AUTO 00000KT 10SM CLR 01/M03 A3022 RMK AO2 T00141030
KSLR 231215Z AUTO 00000KT 10SM CLR 01/M03 A3022 RMK AO2 T00101028
KSLR 231155Z AUTO 00000KT 10SM CLR 01/M03 A3022 RMK AO2 T00101032 10051 20006
KSLR 231135Z AUTO 00000KT 10SM CLR 01/M03 A3021 RMK AO2 T00101033
KSLR 231115Z AUTO 00000KT 10SM CLR 01/M03 A3022 RMK AO2 T00111032
KSLR 231055Z AUTO 00000KT 10SM CLR 01/M03 A3022 RMK AO2 T00081026
KSLR 231035Z AUTO 24004KT 10SM CLR 01/M03 A3022 RMK AO2 T00101026
KSLR 231015Z AUTO 24004KT 10SM CLR 01/M02 A3023 RMK AO2 T00081022
KSLR 230955Z AUTO 25003KT 10SM CLR 01/M02 A3024 RMK AO2 T00101020
KSLR 230935Z AUTO 25003KT 10SM CLR 01/M02 A3024 RMK AO2 T00071020
KSLR 230915Z AUTO 26003KT 10SM CLR 01/M02 A3024 RMK AO2 T00101022
KSLR 230855Z AUTO 27003KT 10SM CLR 02/M02 A3024 RMK AO2 T00161024
KSLR 230835Z AUTO 00000KT 10SM CLR 02/M02 A3024 RMK AO2 T00171023
KSLR 230815Z AUTO 00000KT 10SM CLR 02/M02 A3025 RMK AO2 T00201021
KSLR 230755Z AUTO 00000KT 10SM CLR 03/M02 A3025 RMK AO2 T00251021
KSLR 230735Z AUTO 00000KT 10SM CLR 05/M03 A3025 RMK AO2 T00501029
KSLR 230715Z AUTO 00000KT 10SM CLR 05/M02 A3026 RMK AO2 T00461025
KSLR 230655Z AUTO 00000KT 10SM CLR 04/M03 A3026 RMK AO2 T00431034
KSLR 230635Z AUTO 00000KT 10SM CLR 05/M04 A3027 RMK AO2 T00471038
KSLR 230615Z AUTO 00000KT 10SM CLR 04/M03 A3027 RMK AO2 T00431031